Time;durP1;ratioP1;P1;durP2;ratioP2;P2;SDS_P1;SDS_P2;PMS_P1;PMS_P2;Temp;Humidity;BMP_temperature;BMP_pressure;BME280_temperature;BME280_humidity;BME280_pressure;Samples;Min_cycle;Max_cycle;Signal;HPM_P1;HPM_P2
2022/10/08 00:00:04;;;;;;;13.38;4.80;;;;;;;;;;1029148;28;20110;-75
2022/10/08 00:00:35;;;;;;;15.13;5.78;;;;;;;;;;1027604;28;20023;-75
2022/10/08 00:01:07;;;;;;;21.73;6.57;;;;;;;;;;1026719;28;20025;-75
2022/10/08 00:01:38;;;;;;;7.10;4.43;;;;;;;;;;1027256;28;20488;-75
2022/10/08 00:02:09;;;;;;;21.83;5.25;;;;;;;;;;1023494;28;20023;-75
2022/10/08 00:02:39;;;;;;;8.63;5.15;;;;;;;;;;1023592;28;20463;-75
2022/10/08 00:03:10;;;;;;;22.10;3.88;;;;;;;;;;1027250;28;20092;-75
2022/10/08 00:03:42;;;;;;;15.13;5.13;;;;;;;;;;1023360;28;20122;-75
2022/10/08 00:04:12;;;;;;;13.20;4.00;;;;;;;;;;1026058;28;20086;-75
2022/10/08 00:04:44;;;;;;;21.35;5.38;;;;;;;;;;1023047;28;20016;-75
2022/10/08 00:05:14;;;;;;;19.70;5.43;;;;;;;;;;1023709;28;20031;-75
2022/10/08 00:06:03;;;;;;;17.63;4.72;;;;;;;;;;1027344;28;20026;-75
2022/10/08 00:06:34;;;;;;;19.98;3.85;;;;;;;;;;1027237;28;20020;-75
2022/10/08 00:07:05;;;;;;;13.38;4.50;;;;;;;;;;1027128;28;20022;-75
2022/10/08 00:07:35;;;;;;;15.40;4.82;;;;;;;;;;1027214;28;20018;-75
2022/10/08 00:08:07;;;;;;;18.25;3.80;;;;;;;;;;1027165;28;20030;-75
2022/10/08 00:08:38;;;;;;;9.45;4.90;;;;;;;;;;1027342;28;20069;-75
2022/10/08 00:09:09;;;;;;;11.98;3.40;;;;;;;;;;1027593;28;20439;-75
2022/10/08 00:09:39;;;;;;;13.52;4.07;;;;;;;;;;1027601;28;20023;-75
2022/10/08 00:10:10;;;;;;;17.52;5.38;;;;;;;;;;1027457;28;20030;-75
2022/10/08 00:10:41;;;;;;;22.95;5.05;;;;;;;;;;1027392;28;20077;-75
2022/10/08 00:11:14;;;;;;;15.48;5.90;;;;;;;;;;1027207;28;20451;-75
2022/10/08 00:11:44;;;;;;;19.77;5.35;;;;;;;;;;1023205;28;20392;-75
2022/10/08 00:12:15;;;;;;;12.57;5.43;;;;;;;;;;1021687;29;20024;-75
2022/10/08 00:12:45;;;;;;;14.88;5.80;;;;;;;;;;1021696;28;20087;-75
2022/10/08 00:13:16;;;;;;;15.70;4.35;;;;;;;;;;1025084;28;20030;-75
2022/10/08 00:13:47;;;;;;;15.98;4.75;;;;;;;;;;1023230;28;20061;-75
2022/10/08 00:14:18;;;;;;;13.18;5.78;;;;;;;;;;1027191;28;20034;-75
2022/10/08 00:14:49;;;;;;;19.52;5.53;;;;;;;;;;1027381;28;20125;-75
2022/10/08 00:15:19;;;;;;;14.20;4.15;;;;;;;;;;1027111;28;20026;-75
2022/10/08 00:15:50;;;;;;;11.93;4.40;;;;;;;;;;1027348;28;20475;-75
2022/10/08 00:16:22;;;;;;;9.85;4.07;;;;;;;;;;1027497;28;20534;-75
2022/10/08 00:16:52;;;;;;;14.02;4.78;;;;;;;;;;1026671;28;20014;-75
2022/10/08 00:17:23;;;;;;;12.50;4.53;;;;;;;;;;1023043;29;20083;-75
2022/10/08 00:17:54;;;;;;;15.27;4.65;;;;;;;;;;1023339;28;20451;-75
2022/10/08 00:18:24;;;;;;;25.17;6.57;;;;;;;;;;1023014;29;20178;-75
2022/10/08 00:18:58;;;;;;;21.73;6.05;;;;;;;;;;1023474;29;20023;-75
2022/10/08 00:19:28;;;;;;;13.40;4.68;;;;;;;;;;1025824;28;20022;-75
2022/10/08 00:19:59;;;;;;;8.68;5.05;;;;;;;;;;1027112;28;20023;-75
2022/10/08 00:20:29;;;;;;;12.70;5.35;;;;;;;;;;1027149;28;20057;-74
2022/10/08 00:21:04;;;;;;;17.38;5.18;;;;;;;;;;1027376;28;20034;-75
2022/10/08 00:21:36;;;;;;;23.83;5.28;;;;;;;;;;1027245;28;20545;-75
2022/10/08 00:22:07;;;;;;;30.63;5.75;;;;;;;;;;1026502;28;20027;-75
2022/10/08 00:22:37;;;;;;;12.40;5.20;;;;;;;;;;1027065;28;20018;-75
2022/10/08 00:23:08;;;;;;;27.83;6.80;;;;;;;;;;1026794;28;20034;-75
2022/10/08 00:23:39;;;;;;;12.73;5.30;;;;;;;;;;1027291;28;20033;-75
2022/10/08 00:24:14;;;;;;;12.75;5.00;;;;;;;;;;1027179;28;20053;-75
2022/10/08 00:24:45;;;;;;;14.30;6.13;;;;;;;;;;1027351;28;20566;-75
2022/10/08 00:25:15;;;;;;;18.73;5.47;;;;;;;;;;1027609;28;20031;-75
2022/10/08 00:25:46;;;;;;;14.18;5.32;;;;;;;;;;1027152;28;20034;-75
2022/10/08 00:26:18;;;;;;;30.08;6.40;;;;;;;;;;1027283;28;20392;-75
2022/10/08 00:26:50;;;;;;;17.38;5.10;;;;;;;;;;1023151;28;20436;-75
2022/10/08 00:27:22;;;;;;;11.82;4.10;;;;;;;;;;1019674;29;20023;-75
2022/10/08 00:27:53;;;;;;;22.40;5.57;;;;;;;;;;1022780;29;20113;-75
2022/10/08 00:28:23;;;;;;;11.57;5.55;;;;;;;;;;1019028;29;20471;-75
2022/10/08 00:28:55;;;;;;;16.15;4.65;;;;;;;;;;1019763;29;20035;-75
2022/10/08 00:29:26;;;;;;;15.65;5.53;;;;;;;;;;1023255;28;20623;-75
2022/10/08 00:29:56;;;;;;;21.85;3.58;;;;;;;;;;1027276;28;20284;-75
2022/10/08 00:30:27;;;;;;;13.90;4.18;;;;;;;;;;1027456;28;20023;-75
2022/10/08 00:30:57;;;;;;;16.58;5.43;;;;;;;;;;1026188;28;20017;-75
2022/10/08 00:31:32;;;;;;;15.52;5.68;;;;;;;;;;1026167;28;20034;-75
2022/10/08 00:32:03;;;;;;;24.00;6.85;;;;;;;;;;1023072;28;20031;-75
2022/10/08 00:32:33;;;;;;;27.13;6.72;;;;;;;;;;1023064;29;20054;-75
2022/10/08 00:33:04;;;;;;;25.08;7.38;;;;;;;;;;1023282;29;20073;-75
2022/10/08 00:33:35;;;;;;;23.17;8.73;;;;;;;;;;1023265;29;20030;-75
2022/10/08 00:34:08;;;;;;;16.23;6.55;;;;;;;;;;1027631;28;20109;-75
2022/10/08 00:34:38;;;;;;;27.45;7.20;;;;;;;;;;1026965;28;20026;-75
2022/10/08 00:35:09;;;;;;;19.90;6.68;;;;;;;;;;1027569;28;20061;-75
2022/10/08 00:35:40;;;;;;;24.70;7.13;;;;;;;;;;1027592;28;20030;-75
2022/10/08 00:36:11;;;;;;;28.23;8.48;;;;;;;;;;1026757;28;20023;-75
2022/10/08 00:36:42;;;;;;;22.58;7.30;;;;;;;;;;1023066;29;20528;-75
2022/10/08 00:37:14;;;;;;;32.33;8.68;;;;;;;;;;1023059;28;20023;-75
2022/10/08 00:37:44;;;;;;;18.02;8.77;;;;;;;;;;1023630;28;20035;-75
2022/10/08 00:38:15;;;;;;;19.95;6.97;;;;;;;;;;1027139;28;20035;-75
2022/10/08 00:38:45;;;;;;;34.83;8.88;;;;;;;;;;1027539;28;20033;-75
2022/10/08 00:39:17;;;;;;;13.77;6.85;;;;;;;;;;1027562;28;20041;-75
2022/10/08 00:39:48;;;;;;;16.10;7.00;;;;;;;;;;1027707;28;20026;-75
2022/10/08 00:40:18;;;;;;;22.80;6.15;;;;;;;;;;1027891;28;20038;-75
2022/10/08 00:40:49;;;;;;;17.98;6.55;;;;;;;;;;1027603;28;20031;-75
2022/10/08 00:41:21;;;;;;;22.42;7.78;;;;;;;;;;1027096;28;20546;-75
2022/10/08 00:41:53;;;;;;;22.38;6.43;;;;;;;;;;1026651;28;20027;-75
2022/10/08 00:42:23;;;;;;;23.25;6.47;;;;;;;;;;1027181;28;20033;-75
2022/10/08 00:42:54;;;;;;;22.13;5.95;;;;;;;;;;1027118;28;20046;-75
2022/10/08 00:43:39;;;;;;;18.60;5.60;;;;;;;;;;1027484;28;20027;-75
2022/10/08 00:44:28;;;;;;;13.82;5.35;;;;;;;;;;1027320;28;20030;-75
2022/10/08 00:44:59;;;;;;;30.73;6.50;;;;;;;;;;1026753;28;20031;-75
2022/10/08 00:45:30;;;;;;;15.95;6.30;;;;;;;;;;1027408;28;20030;-75
2022/10/08 00:46:01;;;;;;;23.83;7.30;;;;;;;;;;1027156;28;20033;-75
2022/10/08 00:46:36;;;;;;;23.23;5.95;;;;;;;;;;1027104;28;20134;-75
2022/10/08 00:47:14;;;;;;;20.73;7.32;;;;;;;;;;1026684;28;20070;-75
2022/10/08 00:47:46;;;;;;;22.27;9.43;;;;;;;;;;1027125;28;20058;-75
2022/10/08 00:48:19;;;;;;;17.58;5.78;;;;;;;;;;1027346;28;20038;-75
2022/10/08 00:49:16;;;;;;;15.57;6.65;;;;;;;;;;1027292;28;20395;-75
2022/10/08 00:49:48;;;;;;;24.00;6.75;;;;;;;;;;1023115;28;20113;-75
2022/10/08 00:50:22;;;;;;;17.65;6.50;;;;;;;;;;1027195;28;20403;-75
2022/10/08 00:50:53;;;;;;;22.02;5.25;;;;;;;;;;1027315;28;20035;-75
2022/10/08 00:51:23;;;;;;;18.83;5.97;;;;;;;;;;1027482;28;20046;-75
2022/10/08 00:51:55;;;;;;;32.92;6.72;;;;;;;;;;1027416;28;20471;-75
2022/10/08 00:52:27;;;;;;;19.67;6.95;;;;;;;;;;1027188;28;20027;-76
2022/10/08 00:53:00;;;;;;;13.70;4.80;;;;;;;;;;1026521;28;20058;-75
2022/10/08 00:53:31;;;;;;;33.00;6.30;;;;;;;;;;1026754;28;20085;-75
2022/10/08 00:54:03;;;;;;;13.27;6.53;;;;;;;;;;1027151;28;20533;-75
2022/10/08 00:54:35;;;;;;;20.33;7.18;;;;;;;;;;1027200;28;20363;-75
2022/10/08 00:55:06;;;;;;;20.10;5.80;;;;;;;;;;1027107;28;20112;-76
2022/10/08 00:55:39;;;;;;;16.08;6.60;;;;;;;;;;1026745;28;20298;-75
2022/10/08 00:56:10;;;;;;;25.25;7.03;;;;;;;;;;1027099;28;20588;-75
2022/10/08 00:56:41;;;;;;;20.38;5.75;;;;;;;;;;1027059;28;20117;-75
2022/10/08 00:57:11;;;;;;;20.63;5.70;;;;;;;;;;1027216;28;20134;-75
2022/10/08 00:57:42;;;;;;;27.83;6.50;;;;;;;;;;1027076;28;20364;-75
2022/10/08 00:58:17;;;;;;;30.40;8.25;;;;;;;;;;1026122;28;20101;-75
2022/10/08 00:58:49;;;;;;;25.88;7.97;;;;;;;;;;1023070;28;20439;-74
2022/10/08 00:59:19;;;;;;;26.83;9.57;;;;;;;;;;1019883;29;20496;-74
2022/10/08 00:59:50;;;;;;;21.58;7.25;;;;;;;;;;1022912;29;20055;-74
2022/10/08 01:00:22;;;;;;;23.17;5.65;;;;;;;;;;1023295;28;20035;-74
2022/10/08 01:00:53;;;;;;;15.23;5.93;;;;;;;;;;1027320;28;20026;-74
2022/10/08 01:01:24;;;;;;;18.27;5.45;;;;;;;;;;1027422;28;20022;-75
2022/10/08 01:01:54;;;;;;;21.60;5.63;;;;;;;;;;1027057;28;20109;-74
2022/10/08 01:02:25;;;;;;;17.60;8.07;;;;;;;;;;1027076;28;20026;-75
2022/10/08 01:02:56;;;;;;;20.70;7.50;;;;;;;;;;1027251;28;20404;-75
2022/10/08 01:03:26;;;;;;;15.73;7.53;;;;;;;;;;1026845;28;20030;-74
2022/10/08 01:04:00;;;;;;;32.80;11.98;;;;;;;;;;1027523;28;20030;-75
2022/10/08 01:04:31;;;;;;;38.42;12.57;;;;;;;;;;1026406;28;20034;-75
2022/10/08 01:05:03;;;;;;;32.63;10.75;;;;;;;;;;1027536;28;20026;-75
2022/10/08 01:05:46;;;;;;;44.42;10.30;;;;;;;;;;1027553;28;20039;-75
2022/10/08 01:06:22;;;;;;;17.52;7.78;;;;;;;;;;1026858;28;20023;-75
2022/10/08 01:07:00;;;;;;;23.55;6.55;;;;;;;;;;1027263;28;20475;-75
2022/10/08 01:07:31;;;;;;;18.70;8.35;;;;;;;;;;1027055;28;20727;-75
2022/10/08 01:08:11;;;;;;;15.85;5.05;;;;;;;;;;1026113;28;20467;-75
2022/10/08 01:09:00;;;;;;;21.52;7.55;;;;;;;;;;1026323;28;20030;-75
2022/10/08 01:09:36;;;;;;;16.52;5.80;;;;;;;;;;1026805;28;20031;-75
2022/10/08 01:10:17;;;;;;;30.45;10.10;;;;;;;;;;1026675;28;20030;-75
2022/10/08 01:10:47;;;;;;;36.50;9.68;;;;;;;;;;1023155;29;20027;-75
2022/10/08 01:11:33;;;;;;;113.63;39.33;;;;;;;;;;1025334;28;20087;-75
2022/10/08 01:12:07;;;;;;;112.63;39.75;;;;;;;;;;1026675;28;20059;-75
2022/10/08 01:12:56;;;;;;;139.35;48.92;;;;;;;;;;1028751;28;20097;-75
2022/10/08 01:13:26;;;;;;;58.63;22.95;;;;;;;;;;1030882;28;20038;-75
2022/10/08 01:14:15;;;;;;;68.38;18.70;;;;;;;;;;1027101;28;20026;-75
2022/10/08 01:14:45;;;;;;;38.47;13.38;;;;;;;;;;1026185;28;20487;-75
2022/10/08 01:15:42;;;;;;;47.10;12.40;;;;;;;;;;1022975;29;20035;-75
2022/10/08 01:16:19;;;;;;;46.83;16.45;;;;;;;;;;1014356;29;20040;-75
2022/10/08 01:16:53;;;;;;;60.70;15.95;;;;;;;;;;1019350;28;20412;-75
2022/10/08 01:17:29;;;;;;;44.53;14.95;;;;;;;;;;1026444;28;20073;-75
2022/10/08 01:18:09;;;;;;;40.63;14.85;;;;;;;;;;1025755;28;20023;-75
2022/10/08 01:18:39;;;;;;;36.50;12.38;;;;;;;;;;1026480;28;20027;-75
2022/10/08 01:19:10;;;;;;;41.42;14.27;;;;;;;;;;1025230;28;20474;-76
2022/10/08 01:19:56;;;;;;;36.90;13.25;;;;;;;;;;1024921;28;20494;-75
2022/10/08 01:20:27;;;;;;;36.20;13.32;;;;;;;;;;1025786;28;20137;-76
2022/10/08 01:21:16;;;;;;;35.33;10.02;;;;;;;;;;1025796;28;20031;-75
2022/10/08 01:21:58;;;;;;;30.55;8.95;;;;;;;;;;1026886;28;20027;-76
2022/10/08 01:22:32;;;;;;;39.85;9.45;;;;;;;;;;1025917;28;20109;-75
2022/10/08 01:23:08;;;;;;;39.45;8.40;;;;;;;;;;1026978;28;20026;-76
2022/10/08 01:23:45;;;;;;;52.50;11.95;;;;;;;;;;1026838;28;20034;-74
2022/10/08 01:24:20;;;;;;;33.00;10.05;;;;;;;;;;1026002;28;20027;-75
2022/10/08 01:25:41;;;;;;;;;;;;;;;;;;1027338;28;20118;-75
2022/10/08 01:26:24;;;;;;;20.63;6.55;;;;;;;;;;1026891;28;19910;-75
2022/10/08 01:26:59;;;;;;;14.77;6.88;;;;;;;;;;1026911;28;20027;-74
2022/10/08 01:27:33;;;;;;;24.00;8.25;;;;;;;;;;1022622;29;20027;-75
2022/10/08 01:28:04;;;;;;;25.15;7.45;;;;;;;;;;1022116;29;20057;-75
2022/10/08 01:28:35;;;;;;;18.65;6.93;;;;;;;;;;1023767;28;20030;-75
2022/10/08 01:29:08;;;;;;;17.60;7.78;;;;;;;;;;1026917;28;20137;-76
2022/10/08 01:29:42;;;;;;;19.13;6.60;;;;;;;;;;1030652;28;20065;-75
2022/10/08 01:30:15;;;;;;;27.70;7.47;;;;;;;;;;1029342;28;20026;-76
2022/10/08 01:30:58;;;;;;;25.65;8.82;;;;;;;;;;1028141;28;20027;-75
2022/10/08 01:31:30;;;;;;;21.77;7.93;;;;;;;;;;1025737;28;20074;-75
2022/10/08 01:32:03;;;;;;;27.40;6.72;;;;;;;;;;1026381;28;20057;-75
2022/10/08 01:32:37;;;;;;;17.90;7.88;;;;;;;;;;1024714;28;20511;-75
2022/10/08 01:33:14;;;;;;;21.17;6.95;;;;;;;;;;1026238;28;20019;-75
2022/10/08 01:33:48;;;;;;;23.45;8.35;;;;;;;;;;1021957;29;20031;-76
2022/10/08 01:34:40;;;;;;;20.75;6.85;;;;;;;;;;1022217;28;20620;-75
2022/10/08 01:35:14;;;;;;;31.90;9.23;;;;;;;;;;1026937;28;20065;-75
2022/10/08 01:35:49;;;;;;;17.30;8.40;;;;;;;;;;1027439;28;20646;-76
2022/10/08 01:36:20;;;;;;;34.67;9.05;;;;;;;;;;1027283;28;20022;-76
2022/10/08 01:36:52;;;;;;;21.88;10.07;;;;;;;;;;1027149;28;20085;-76
2022/10/08 01:37:35;;;;;;;18.35;8.40;;;;;;;;;;1027377;28;20026;-75
2022/10/08 01:38:07;;;;;;;18.88;6.03;;;;;;;;;;1026681;28;20027;-76
2022/10/08 01:38:41;;;;;;;11.95;7.03;;;;;;;;;;1028210;28;20402;-76
2022/10/08 01:39:14;;;;;;;20.65;8.77;;;;;;;;;;1026320;28;20078;-76
2022/10/08 01:39:47;;;;;;;29.27;8.80;;;;;;;;;;1023412;28;20038;-76
2022/10/08 01:40:19;;;;;;;26.75;7.32;;;;;;;;;;1023212;28;20030;-76
2022/10/08 01:40:51;;;;;;;26.23;9.43;;;;;;;;;;1023040;29;20364;-76
2022/10/08 01:41:24;;;;;;;21.20;8.48;;;;;;;;;;1023295;28;20654;-76
2022/10/08 01:41:57;;;;;;;40.92;8.35;;;;;;;;;;1028040;28;20057;-76
2022/10/08 01:42:29;;;;;;;20.02;9.40;;;;;;;;;;1026912;28;20030;-75
2022/10/08 01:43:00;;;;;;;36.20;15.23;;;;;;;;;;1022527;28;20130;-76
2022/10/08 01:43:33;;;;;;;42.20;12.18;;;;;;;;;;1022633;29;20037;-76
2022/10/08 01:44:06;;;;;;;30.58;10.07;;;;;;;;;;1023387;28;20031;-76
2022/10/08 01:44:37;;;;;;;24.95;8.52;;;;;;;;;;1022654;29;20035;-75
2022/10/08 01:45:11;;;;;;;21.63;10.02;;;;;;;;;;1024298;28;20114;-76
2022/10/08 01:45:45;;;;;;;36.10;9.20;;;;;;;;;;1027469;28;20037;-76
2022/10/08 01:46:18;;;;;;;28.52;9.25;;;;;;;;;;1025231;28;20031;-76
2022/10/08 01:46:50;;;;;;;41.38;9.32;;;;;;;;;;1027269;28;20051;-76
2022/10/08 01:47:25;;;;;;;23.80;7.88;;;;;;;;;;1027595;28;20027;-76
2022/10/08 01:47:58;;;;;;;27.52;10.95;;;;;;;;;;1026165;28;20115;-76
2022/10/08 01:48:32;;;;;;;35.67;15.68;;;;;;;;;;1026079;28;20197;-76
2022/10/08 01:49:06;;;;;;;31.95;15.88;;;;;;;;;;1027260;28;20035;-76
2022/10/08 01:49:41;;;;;;;30.08;11.73;;;;;;;;;;1027291;28;20026;-76
2022/10/08 01:50:25;;;;;;;35.17;11.57;;;;;;;;;;1026233;28;20046;-76
2022/10/08 01:50:57;;;;;;;29.38;12.60;;;;;;;;;;1027371;28;20094;-76
2022/10/08 01:51:31;;;;;;;30.70;11.85;;;;;;;;;;1027341;28;20027;-76
2022/10/08 01:52:11;;;;;;;20.67;7.20;;;;;;;;;;1025774;28;20057;-75
2022/10/08 01:52:46;;;;;;;13.82;6.10;;;;;;;;;;1027189;28;20515;-76
2022/10/08 01:53:18;;;;;;;19.38;7.07;;;;;;;;;;1026935;28;20022;-75
2022/10/08 01:53:50;;;;;;;22.73;7.68;;;;;;;;;;1027726;28;20444;-75
2022/10/08 01:54:23;;;;;;;21.23;6.70;;;;;;;;;;1026754;28;20077;-75
2022/10/08 01:54:56;;;;;;;15.43;5.00;;;;;;;;;;1027584;28;20034;-75
2022/10/08 01:55:29;;;;;;;17.60;4.15;;;;;;;;;;1023214;29;20535;-75
2022/10/08 01:56:01;;;;;;;20.20;7.43;;;;;;;;;;1023178;28;20468;-75
2022/10/08 01:56:33;;;;;;;33.85;8.00;;;;;;;;;;1027035;28;20027;-75
2022/10/08 01:57:05;;;;;;;17.13;6.05;;;;;;;;;;1023834;28;20027;-76
2022/10/08 01:57:36;;;;;;;26.73;7.65;;;;;;;;;;1027358;28;20479;-75
2022/10/08 01:58:11;;;;;;;18.00;6.30;;;;;;;;;;1025315;28;20096;-76
2022/10/08 01:58:41;;;;;;;13.30;5.78;;;;;;;;;;1027031;28;20126;-75
2022/10/08 01:59:12;;;;;;;28.23;6.07;;;;;;;;;;1027502;28;20042;-76
2022/10/08 01:59:48;;;;;;;28.27;7.45;;;;;;;;;;1027561;28;20038;-76
2022/10/08 02:00:19;;;;;;;20.67;4.80;;;;;;;;;;1027520;28;20047;-76
2022/10/08 02:00:52;;;;;;;33.97;6.95;;;;;;;;;;1027874;28;20145;-77
2022/10/08 02:01:36;;;;;;;29.35;6.93;;;;;;;;;;1027270;28;20585;-76
2022/10/08 02:02:06;;;;;;;31.23;6.25;;;;;;;;;;1026449;28;20030;-76
2022/10/08 02:02:37;;;;;;;20.25;6.40;;;;;;;;;;1027493;28;20094;-76
2022/10/08 02:03:11;;;;;;;15.82;5.93;;;;;;;;;;1027366;28;20054;-76
2022/10/08 02:04:31;;;;;;;29.55;7.55;;;;;;;;;;1027222;28;20049;-76
2022/10/08 02:04:32;;;;;;;23.02;5.93;;;;;;;;;;1026971;28;21529;-75
2022/10/08 02:05:04;;;;;;;25.65;6.95;;;;;;;;;;1026426;28;20046;-76
2022/10/08 02:05:36;;;;;;;14.98;8.65;;;;;;;;;;1023352;29;20534;-76
2022/10/08 02:06:07;;;;;;;18.60;6.78;;;;;;;;;;1022779;29;20023;-76
2022/10/08 02:06:40;;;;;;;20.73;8.70;;;;;;;;;;1023914;28;20039;-76
2022/10/08 02:07:13;;;;;;;23.35;10.00;;;;;;;;;;1027196;28;20019;-76
2022/10/08 02:07:44;;;;;;;27.02;10.30;;;;;;;;;;1027095;28;20026;-76
2022/10/08 02:08:15;;;;;;;26.00;10.85;;;;;;;;;;1022613;29;20058;-77
2022/10/08 02:08:47;;;;;;;25.42;8.57;;;;;;;;;;1023411;29;20522;-76
2022/10/08 02:09:17;;;;;;;31.73;10.25;;;;;;;;;;1023719;28;20562;-76
2022/10/08 02:09:52;;;;;;;41.05;13.45;;;;;;;;;;1027155;28;20066;-76
2022/10/08 02:10:24;;;;;;;24.83;9.82;;;;;;;;;;1026903;28;20481;-76
2022/10/08 02:10:54;;;;;;;25.92;9.30;;;;;;;;;;1027674;28;20034;-76
2022/10/08 02:11:25;;;;;;;19.88;7.18;;;;;;;;;;1027103;28;20037;-76
2022/10/08 02:11:56;;;;;;;25.25;7.13;;;;;;;;;;1027383;28;20029;-77
2022/10/08 02:12:27;;;;;;;31.40;7.72;;;;;;;;;;1026835;28;20067;-76
2022/10/08 02:12:57;;;;;;;27.90;7.68;;;;;;;;;;1027766;28;20083;-77
2022/10/08 02:13:29;;;;;;;20.15;8.18;;;;;;;;;;1030355;28;20029;-77
2022/10/08 02:13:59;;;;;;;16.80;6.85;;;;;;;;;;1031226;28;20037;-76
2022/10/08 02:14:31;;;;;;;24.38;7.47;;;;;;;;;;1027282;28;20065;-76
2022/10/08 02:15:03;;;;;;;23.83;5.30;;;;;;;;;;1026971;28;20030;-76
2022/10/08 02:15:46;;;;;;;22.40;6.35;;;;;;;;;;1027267;28;20034;-76
2022/10/08 02:16:23;;;;;;;24.38;6.85;;;;;;;;;;1023017;28;20023;-76
2022/10/08 02:17:00;;;;;;;36.72;7.45;;;;;;;;;;1023625;28;20032;-76
2022/10/08 02:17:36;;;;;;;29.38;8.35;;;;;;;;;;1022373;29;20392;-76
2022/10/08 02:18:09;;;;;;;24.83;8.40;;;;;;;;;;1025539;28;20027;-77
2022/10/08 02:18:44;;;;;;;26.70;6.80;;;;;;;;;;1029461;28;20176;-76
2022/10/08 02:19:40;;;;;;;25.85;7.32;;;;;;;;;;1026993;28;20050;-76
2022/10/08 02:20:19;;;;;;;32.83;6.25;;;;;;;;;;1021357;28;20559;-76
2022/10/08 02:21:00;;;;;;;30.30;7.38;;;;;;;;;;1022121;29;20019;-76
2022/10/08 02:21:31;;;;;;;22.33;5.70;;;;;;;;;;1023587;28;20023;-77
2022/10/08 02:22:03;;;;;;;37.55;9.20;;;;;;;;;;1022520;28;20038;-77
2022/10/08 02:22:39;;;;;;;30.25;7.30;;;;;;;;;;1024750;28;20078;-76
2022/10/08 02:23:19;;;;;;;18.40;6.50;;;;;;;;;;1026662;28;20027;-76
2022/10/08 02:23:56;;;;;;;23.45;7.70;;;;;;;;;;1027180;28;20070;-77
2022/10/08 02:24:32;;;;;;;25.25;7.30;;;;;;;;;;1027156;28;20292;-77
2022/10/08 02:25:21;;;;;;;19.77;5.60;;;;;;;;;;1024082;28;20030;-77
2022/10/08 02:26:02;;;;;;;26.23;6.85;;;;;;;;;;1027454;28;20458;-77
2022/10/08 02:26:39;;;;;;;29.05;8.55;;;;;;;;;;1026726;28;20037;-77
2022/10/08 02:27:11;;;;;;;17.48;6.97;;;;;;;;;;1026776;28;20034;-76
2022/10/08 02:27:50;;;;;;;19.17;6.93;;;;;;;;;;1027470;28;20444;-76
2022/10/08 02:28:25;;;;;;;31.23;7.20;;;;;;;;;;1026816;28;20026;-77
2022/10/08 02:28:58;;;;;;;21.20;5.47;;;;;;;;;;1027445;28;20068;-76
2022/10/08 02:29:32;;;;;;;36.88;8.15;;;;;;;;;;1026896;28;20085;-77
2022/10/08 02:30:07;;;;;;;19.60;7.38;;;;;;;;;;1025129;28;20030;-77
2022/10/08 02:30:42;;;;;;;31.73;6.72;;;;;;;;;;1027242;28;20030;-77
2022/10/08 02:31:15;;;;;;;17.08;4.80;;;;;;;;;;1027039;28;20430;-77
2022/10/08 02:31:53;;;;;;;25.95;5.13;;;;;;;;;;1022785;28;20038;-77
2022/10/08 02:32:28;;;;;;;12.93;5.13;;;;;;;;;;1021457;29;20039;-77
2022/10/08 02:33:01;;;;;;;18.20;6.03;;;;;;;;;;1022498;29;20482;-77
2022/10/08 02:33:35;;;;;;;13.48;5.63;;;;;;;;;;1020715;29;20523;-76
2022/10/08 02:34:08;;;;;;;14.15;6.60;;;;;;;;;;1024064;28;20027;-76
2022/10/08 02:34:46;;;;;;;27.23;7.85;;;;;;;;;;1025974;28;20040;-76
2022/10/08 02:35:22;;;;;;;35.83;6.85;;;;;;;;;;1028158;28;20050;-76
2022/10/08 02:35:54;;;;;;;41.33;7.40;;;;;;;;;;1025986;28;20486;-76
2022/10/08 02:36:27;;;;;;;34.17;6.80;;;;;;;;;;1026221;28;20031;-76
2022/10/08 02:37:03;;;;;;;40.35;6.80;;;;;;;;;;1027268;28;20030;-76
2022/10/08 02:37:42;;;;;;;44.03;8.35;;;;;;;;;;1023866;28;20487;-76
2022/10/08 02:38:16;;;;;;;26.85;6.20;;;;;;;;;;1022881;29;20030;-76
2022/10/08 02:38:50;;;;;;;31.35;7.18;;;;;;;;;;1018065;29;20520;-76
2022/10/08 02:39:23;;;;;;;27.48;7.90;;;;;;;;;;1021306;29;20031;-77
2022/10/08 02:40:00;;;;;;;29.33;7.50;;;;;;;;;;1022286;28;20025;-76
2022/10/08 02:40:32;;;;;;;18.90;7.20;;;;;;;;;;1024405;28;20035;-75
2022/10/08 02:41:04;;;;;;;39.75;8.25;;;;;;;;;;1028800;28;20038;-76
2022/10/08 02:41:50;;;;;;;26.13;8.20;;;;;;;;;;1030035;28;20482;-76
2022/10/08 02:42:23;;;;;;;25.95;8.20;;;;;;;;;;1027491;28;20133;-76
2022/10/08 02:42:56;;;;;;;26.33;7.85;;;;;;;;;;1026436;28;20568;-75
2022/10/08 02:43:30;;;;;;;33.53;9.45;;;;;;;;;;1022358;28;20027;-75
2022/10/08 02:44:04;;;;;;;41.58;11.25;;;;;;;;;;1022712;29;20418;-76
2022/10/08 02:44:41;;;;;;;49.03;10.90;;;;;;;;;;1024278;28;20495;-76
2022/10/08 02:45:18;;;;;;;41.83;9.15;;;;;;;;;;1027243;28;20034;-75
2022/10/08 02:45:55;;;;;;;38.35;10.02;;;;;;;;;;1026630;28;20069;-76
2022/10/08 02:46:28;;;;;;;48.33;11.25;;;;;;;;;;1025742;28;20027;-76
2022/10/08 02:47:00;;;;;;;32.53;10.82;;;;;;;;;;1026821;28;20042;-76
2022/10/08 02:47:32;;;;;;;37.20;12.52;;;;;;;;;;1025336;28;20536;-76
2022/10/08 02:48:10;;;;;;;28.67;8.93;;;;;;;;;;1026470;28;20035;-76
2022/10/08 02:48:43;;;;;;;31.00;10.13;;;;;;;;;;1022461;29;20057;-76
2022/10/08 02:49:23;;;;;;;30.20;11.13;;;;;;;;;;1024560;28;20038;-77
2022/10/08 02:50:02;;;;;;;35.85;9.10;;;;;;;;;;1026919;28;20037;-76
2022/10/08 02:50:34;;;;;;;33.92;9.70;;;;;;;;;;1025346;28;20097;-76
2022/10/08 02:51:06;;;;;;;27.50;10.35;;;;;;;;;;1026741;28;20467;-77
2022/10/08 02:51:39;;;;;;;41.55;11.27;;;;;;;;;;1027331;28;20117;-77
2022/10/08 02:52:10;;;;;;;22.90;7.93;;;;;;;;;;1026320;28;20023;-77
2022/10/08 02:52:42;;;;;;;28.02;8.70;;;;;;;;;;1026062;28;20063;-77
2022/10/08 02:53:14;;;;;;;33.47;10.35;;;;;;;;;;1022640;29;20476;-77
2022/10/08 02:53:47;;;;;;;25.42;8.07;;;;;;;;;;1022370;29;20034;-77
2022/10/08 02:54:18;;;;;;;36.88;9.40;;;;;;;;;;1023543;28;20031;-76
2022/10/08 02:54:50;;;;;;;35.17;8.80;;;;;;;;;;1026642;28;20055;-77
2022/10/08 02:55:43;;;;;;;32.95;9.82;;;;;;;;;;1026776;28;20889;-77
2022/10/08 02:56:23;;;;;;;27.83;9.80;;;;;;;;;;1027090;28;20133;-76
2022/10/08 02:56:56;;;;;;;38.13;10.13;;;;;;;;;;1023444;28;20038;-77
2022/10/08 02:57:37;;;;;;;31.70;8.95;;;;;;;;;;1022086;29;20039;-77
2022/10/08 02:58:08;;;;;;;40.30;9.02;;;;;;;;;;1024503;28;20038;-77
2022/10/08 02:58:41;;;;;;;27.23;8.43;;;;;;;;;;1028191;28;20395;-77
2022/10/08 02:59:12;;;;;;;36.67;9.63;;;;;;;;;;1030163;28;20074;-77
2022/10/08 02:59:44;;;;;;;30.67;8.57;;;;;;;;;;1026772;28;20391;-77
2022/10/08 03:00:15;;;;;;;28.20;9.05;;;;;;;;;;1027479;28;20033;-77
2022/10/08 03:00:58;;;;;;;38.78;8.95;;;;;;;;;;1027178;28;20518;-77
2022/10/08 03:01:35;;;;;;;18.17;7.50;;;;;;;;;;1026340;28;20089;-77
2022/10/08 03:02:08;;;;;;;41.08;7.97;;;;;;;;;;1024997;28;20025;-77
2022/10/08 03:02:42;;;;;;;35.10;8.57;;;;;;;;;;1026472;28;20066;-77
2022/10/08 03:03:14;;;;;;;32.88;7.00;;;;;;;;;;1021100;28;20511;-77
2022/10/08 03:03:47;;;;;;;27.02;6.82;;;;;;;;;;1023890;28;20031;-77
2022/10/08 03:04:37;;;;;;;27.67;7.45;;;;;;;;;;1022863;29;20027;-77
2022/10/08 03:05:15;;;;;;;19.58;8.48;;;;;;;;;;1022015;29;20404;-77
2022/10/08 03:05:47;;;;;;;15.88;7.90;;;;;;;;;;1021550;28;20108;-76
2022/10/08 03:06:21;;;;;;;34.28;6.75;;;;;;;;;;1025527;28;20602;-76
2022/10/08 03:06:53;;;;;;;19.38;5.97;;;;;;;;;;1026050;28;20027;-76
2022/10/08 03:07:25;;;;;;;15.82;6.90;;;;;;;;;;1027069;28;20038;-77
2022/10/08 03:07:57;;;;;;;14.57;6.35;;;;;;;;;;1026008;28;20034;-76
2022/10/08 03:08:28;;;;;;;20.98;7.75;;;;;;;;;;1025733;28;20057;-77
2022/10/08 03:09:00;;;;;;;34.35;6.88;;;;;;;;;;1026574;28;20062;-78
2022/10/08 03:09:36;;;;;;;20.88;6.30;;;;;;;;;;1022562;28;20035;-78
2022/10/08 03:10:07;;;;;;;10.98;5.07;;;;;;;;;;1022527;29;20393;-78
2022/10/08 03:10:40;;;;;;;21.60;7.40;;;;;;;;;;1022687;29;20054;-76
2022/10/08 03:11:11;;;;;;;18.38;4.78;;;;;;;;;;1023774;28;20767;-75
2022/10/08 03:11:42;;;;;;;23.90;6.85;;;;;;;;;;1026770;28;20416;-76
2022/10/08 03:12:13;;;;;;;25.67;7.40;;;;;;;;;;1027219;28;20022;-75
2022/10/08 03:12:43;;;;;;;21.63;6.55;;;;;;;;;;1027019;28;20186;-76
2022/10/08 03:13:14;;;;;;;59.90;21.30;;;;;;;;;;1026597;28;20031;-77
2022/10/08 03:13:47;;;;;;;41.95;11.63;;;;;;;;;;1026759;28;20035;-77
2022/10/08 03:14:19;;;;;;;35.67;11.32;;;;;;;;;;1027246;28;20497;-77
2022/10/08 03:14:51;;;;;;;33.83;11.32;;;;;;;;;;1027754;28;20026;-77
2022/10/08 03:15:22;;;;;;;24.63;7.13;;;;;;;;;;1027572;28;20118;-77
2022/10/08 03:15:53;;;;;;;24.15;7.90;;;;;;;;;;1027782;28;20105;-77
2022/10/08 03:16:33;;;;;;;39.65;6.10;;;;;;;;;;1027188;28;20537;-77
2022/10/08 03:17:10;;;;;;;26.60;7.78;;;;;;;;;;1031024;23;20510;-77
2022/10/08 03:17:43;;;;;;;23.52;8.02;;;;;;;;;;1024847;28;20423;-77
2022/10/08 03:18:14;;;;;;;30.08;7.72;;;;;;;;;;1020083;29;20687;-77
2022/10/08 03:18:45;;;;;;;29.55;6.50;;;;;;;;;;1024171;28;20026;-77
2022/10/08 03:19:17;;;;;;;59.40;14.82;;;;;;;;;;1025463;28;20455;-77
2022/10/08 03:19:48;;;;;;;29.42;8.45;;;;;;;;;;1022135;28;20028;-77
2022/10/08 03:20:20;;;;;;;34.65;8.55;;;;;;;;;;1024468;28;20148;-77